createdAt,value
2022-08-14T00:01:59.106Z,13.57
2022-08-14T00:04:34.393Z,13.57
2022-08-14T00:07:06.771Z,12.10
2022-08-14T00:09:34.397Z,12.63
2022-08-14T00:12:24.493Z,11.50
2022-08-14T00:14:54.787Z,12.87
2022-08-14T00:17:22.003Z,12.27
2022-08-14T00:19:48.632Z,12.60
2022-08-14T00:22:44.575Z,12.23
2022-08-14T00:25:09.446Z,12.90
2022-08-14T00:27:37.953Z,11.13
2022-08-14T00:30:10.709Z,13.63
2022-08-14T00:32:52.858Z,13.23
2022-08-14T00:35:42.213Z,11.43
2022-08-14T00:38:11.598Z,11.77
2022-08-14T00:40:38.975Z,11.07
2022-08-14T00:43:06.557Z,11.93
2022-08-14T00:45:33.912Z,12.47
2022-08-14T00:48:00.524Z,11.60
2022-08-14T00:50:28.754Z,11.73
2022-08-14T00:52:55.977Z,12.30
2022-08-14T00:55:23.374Z,12.00
2022-08-14T00:58:10.278Z,11.73
2022-08-14T01:00:43.082Z,12.00
2022-08-14T01:03:20.228Z,12.27
2022-08-14T01:05:51.989Z,12.33
2022-08-14T01:08:52.338Z,11.23
2022-08-14T01:11:19.031Z,11.50
2022-08-14T01:13:55.856Z,10.43
2022-08-14T01:16:31.302Z,11.30
2022-08-14T01:19:19.557Z,11.17
2022-08-14T01:21:53.313Z,12.00
2022-08-14T01:24:24.635Z,11.27
2022-08-14T01:27:00.257Z,12.20
2022-08-14T01:29:40.366Z,12.07
2022-08-14T01:32:23.307Z,11.30
2022-08-14T01:35:20.333Z,11.50
2022-08-14T01:37:44.557Z,11.70
2022-08-14T01:40:19.806Z,11.63
2022-08-14T01:42:46.755Z,11.53
2022-08-14T01:45:25.227Z,11.37
2022-08-14T01:47:52.037Z,12.33
2022-08-14T01:50:30.563Z,12.27
2022-08-14T01:53:00.437Z,12.10
2022-08-14T01:55:31.331Z,11.53
2022-08-14T01:58:01.839Z,11.53
2022-08-14T02:00:48.273Z,11.53
2022-08-14T02:03:16.208Z,11.73
2022-08-14T02:05:43.551Z,13.27
2022-08-14T02:08:10.611Z,13.03
2022-08-14T02:10:47.083Z,13.30
2022-08-14T02:13:16.656Z,11.80
2022-08-14T02:15:44.513Z,11.80
2022-08-14T02:18:11.774Z,12.80
2022-08-14T02:20:41.823Z,11.67
2022-08-14T02:23:08.987Z,11.23
2022-08-14T02:25:36.688Z,11.27
2022-08-14T02:28:22.348Z,11.73
2022-08-14T02:30:52.414Z,11.37
2022-08-14T02:33:20.585Z,11.07
2022-08-14T02:35:53.587Z,10.43
2022-08-14T02:38:34.319Z,10.87
2022-08-14T02:41:02.537Z,10.70
2022-08-14T02:43:46.327Z,11.60
2022-08-14T02:46:20.587Z,10.77
2022-08-14T02:49:03.049Z,10.50
2022-08-14T02:51:33.617Z,10.40
2022-08-14T02:54:01.862Z,11.20
2022-08-14T02:57:15.217Z,10.67
2022-08-14T02:59:17.754Z,10.83
2022-08-14T03:01:50.918Z,9.97
2022-08-14T03:04:22.420Z,10.10
2022-08-14T03:06:57.637Z,10.00
2022-08-14T03:09:42.389Z,10.07
2022-08-14T03:12:31.193Z,10.93
2022-08-14T03:15:14.365Z,11.13
2022-08-14T03:17:57.709Z,10.57
2022-08-14T03:20:29.263Z,11.17
2022-08-14T03:23:02.740Z,11.57
2022-08-14T03:25:34.190Z,11.73
2022-08-14T03:28:14.835Z,10.90
2022-08-14T03:30:57.729Z,11.07
2022-08-14T03:33:27.930Z,11.73
2022-08-14T03:37:37.678Z,12.77
2022-08-14T03:39:15.029Z,11.63
2022-08-14T03:41:45.304Z,13.40
2022-08-14T03:45:27.105Z,12.23
2022-08-14T03:46:58.601Z,12.50
2022-08-14T03:49:28.439Z,12.20
2022-08-14T03:51:55.669Z,11.93
2022-08-14T03:54:24.569Z,12.70
2022-08-14T03:56:51.256Z,11.97
2022-08-14T03:59:19.780Z,11.83
2022-08-14T04:01:57.799Z,13.27
2022-08-14T04:04:28.261Z,12.57
2022-08-14T04:06:55.089Z,11.80
2022-08-14T04:09:26.642Z,11.63
2022-08-14T04:11:53.470Z,12.07
2022-08-14T04:14:20.312Z,12.57
2022-08-14T04:16:48.062Z,12.97
2022-08-14T04:19:18.805Z,13.10
2022-08-14T04:22:03.207Z,13.17
2022-08-14T04:24:37.974Z,13.30
2022-08-14T04:27:10.649Z,14.63
2022-08-14T04:29:39.782Z,14.03
2022-08-14T04:33:02.396Z,14.50
2022-08-14T04:34:55.165Z,14.23
2022-08-14T04:37:41.907Z,13.90
2022-08-14T04:40:28.322Z,12.47
2022-08-14T04:43:14.270Z,12.60
2022-08-14T04:45:44.143Z,13.43
2022-08-14T04:48:39.027Z,12.87
2022-08-14T04:51:05.018Z,13.37
2022-08-14T04:53:35.642Z,13.27
2022-08-14T04:56:10.416Z,13.73
2022-08-14T04:58:37.808Z,12.87
2022-08-14T05:01:12.845Z,13.80
2022-08-14T05:03:46.655Z,13.60
2022-08-14T05:06:38.043Z,14.37
2022-08-14T05:09:00.815Z,12.93
2022-08-14T05:11:28.316Z,12.07
2022-08-14T05:14:16.620Z,11.63
2022-08-14T05:16:44.246Z,12.23
2022-08-14T05:19:18.079Z,13.30
2022-08-14T05:22:15.814Z,12.07
2022-08-14T05:24:48.651Z,12.40
2022-08-14T05:27:23.107Z,12.60
2022-08-14T05:29:56.879Z,12.53
2022-08-14T05:32:27.225Z,12.33
2022-08-14T05:34:58.262Z,12.17
2022-08-14T05:37:27.274Z,13.83
2022-08-14T05:39:55.280Z,14.93
2022-08-14T05:42:29.108Z,17.37
2022-08-14T05:44:58.661Z,17.13
2022-08-14T05:47:29.105Z,17.67
2022-08-14T05:50:17.226Z,17.43
2022-08-14T05:52:45.633Z,16.53
2022-08-14T05:55:12.475Z,16.93
2022-08-14T05:57:54.442Z,18.97
2022-08-14T06:00:29.883Z,19.27
2022-08-14T06:03:04.142Z,19.40
2022-08-14T06:05:33.875Z,18.13
2022-08-14T06:08:02.213Z,17.30
2022-08-14T06:10:35.471Z,19.13
2022-08-14T06:13:03.388Z,19.67
2022-08-14T06:15:30.478Z,18.90
2022-08-14T06:17:58.886Z,20.50
2022-08-14T06:20:26.592Z,20.37
2022-08-14T06:22:55.486Z,20.27
2022-08-14T06:25:23.062Z,20.97
2022-08-14T06:27:49.758Z,18.43
2022-08-14T06:30:19.203Z,19.17
2022-08-14T06:32:46.867Z,20.10
2022-08-14T06:35:20.537Z,19.07
2022-08-14T06:37:50.411Z,18.10
2022-08-14T06:40:27.452Z,18.33
2022-08-14T06:43:00.256Z,18.23
2022-08-14T06:45:31.202Z,16.87
2022-08-14T06:47:58.623Z,13.47
2022-08-14T06:50:30.541Z,15.20
2022-08-14T06:53:00.403Z,14.10
2022-08-14T06:55:28.300Z,13.37
2022-08-14T06:57:57.641Z,14.10
2022-08-14T07:00:31.147Z,13.93
2022-08-14T07:03:17.811Z,14.03
2022-08-14T07:05:54.956Z,14.20
2022-08-14T07:08:28.744Z,14.70
2022-08-14T07:11:04.072Z,14.40
2022-08-14T07:13:31.237Z,16.10
2022-08-14T07:16:00.583Z,16.17
2022-08-14T07:18:33.491Z,15.63
2022-08-14T07:21:01.936Z,16.17
2022-08-14T07:23:31.213Z,14.33
2022-08-14T07:25:59.501Z,16.63
2022-08-14T07:28:33.051Z,15.70
2022-08-14T07:31:04.676Z,15.73
2022-08-14T07:33:46.704Z,15.00
2022-08-14T07:36:27.801Z,15.67
2022-08-14T07:39:03.113Z,16.53
2022-08-14T07:41:38.534Z,16.73
2022-08-14T07:44:32.209Z,15.33
2022-08-14T07:46:51.983Z,14.63
2022-08-14T07:49:19.907Z,15.23
2022-08-14T07:51:49.647Z,14.77
2022-08-14T07:54:23.151Z,14.77
2022-08-14T07:57:00.754Z,13.93
2022-08-14T07:59:42.569Z,12.80
2022-08-14T08:02:19.750Z,12.57
2022-08-14T08:04:54.895Z,12.67
2022-08-14T08:07:23.370Z,12.90
2022-08-14T08:09:54.623Z,13.90
2022-08-14T08:12:26.167Z,13.57
2022-08-14T08:15:02.559Z,12.77
2022-08-14T08:17:34.970Z,14.43
2022-08-14T08:20:11.620Z,13.13
2022-08-14T08:22:40.867Z,14.07
2022-08-14T08:25:13.790Z,15.10
2022-08-14T08:27:44.923Z,14.00
2022-08-14T08:30:12.394Z,13.67
2022-08-14T08:32:41.404Z,13.40
2022-08-14T08:35:21.138Z,13.20
2022-08-14T08:37:48.687Z,12.43
2022-08-14T08:40:42.227Z,12.37
2022-08-14T08:43:32.361Z,11.43
2022-08-14T08:46:02.505Z,11.83
2022-08-14T08:48:50.380Z,10.70
2022-08-14T08:51:30.901Z,10.40
2022-08-14T08:54:18.524Z,9.53
2022-08-14T08:56:52.105Z,9.33
2022-08-14T08:59:27.073Z,9.63
2022-08-14T09:01:59.987Z,9.80
2022-08-14T09:04:53.290Z,9.37
2022-08-14T09:07:27.114Z,8.93
2022-08-14T09:09:59.120Z,8.77
2022-08-14T09:12:31.563Z,9.47
2022-08-14T09:15:01.287Z,8.80
2022-08-14T09:17:32.590Z,8.33
2022-08-14T09:20:01.922Z,8.50
2022-08-14T09:22:35.173Z,8.43
2022-08-14T09:25:16.209Z,8.80
2022-08-14T09:27:43.055Z,8.77
2022-08-14T09:30:12.736Z,8.93
2022-08-14T09:33:11.195Z,8.23
2022-08-14T09:36:06.034Z,8.23
2022-08-14T09:38:40.685Z,8.80
2022-08-14T09:42:21.891Z,8.80
2022-08-14T09:44:27.332Z,7.70
2022-08-14T09:46:55.451Z,7.80
2022-08-14T09:49:40.649Z,7.97
2022-08-14T09:52:32.700Z,8.23
2022-08-14T09:54:59.128Z,7.67
2022-08-14T09:57:28.867Z,7.83
2022-08-14T09:59:56.158Z,7.93
2022-08-14T10:02:31.640Z,7.80
2022-08-14T10:05:06.680Z,8.07
2022-08-14T10:07:59.206Z,7.70
2022-08-14T10:10:38.842Z,7.67
2022-08-14T10:13:08.627Z,7.57
2022-08-14T10:15:46.018Z,7.60
2022-08-14T10:18:18.174Z,7.40
2022-08-14T10:21:00.752Z,7.10
2022-08-14T10:23:29.765Z,7.50
2022-08-14T10:26:22.378Z,8.07
2022-08-14T10:29:19.024Z,7.23
2022-08-14T10:31:44.781Z,7.43
2022-08-14T10:34:14.332Z,8.23
2022-08-14T10:36:48.086Z,8.03
2022-08-14T10:39:22.410Z,8.83
2022-08-14T10:41:54.092Z,8.00
2022-08-14T10:44:24.508Z,8.27
2022-08-14T10:47:40.960Z,8.00
2022-08-14T10:49:50.042Z,8.40
2022-08-14T10:52:22.081Z,8.50
2022-08-14T10:54:48.754Z,8.43
2022-08-14T10:57:28.316Z,8.70
2022-08-14T11:00:01.862Z,8.60
2022-08-14T11:02:45.044Z,8.40
2022-08-14T11:05:18.839Z,8.83
2022-08-14T11:07:57.001Z,8.77
2022-08-14T11:10:52.847Z,8.10
2022-08-14T11:13:24.233Z,8.37
2022-08-14T11:15:52.622Z,8.07
2022-08-14T11:18:30.046Z,7.90
2022-08-14T11:21:00.684Z,8.23
2022-08-14T11:23:38.432Z,8.20
2022-08-14T11:26:08.333Z,8.17
2022-08-14T11:28:46.855Z,8.17
2022-08-14T11:31:20.419Z,8.53
2022-08-14T11:33:49.983Z,8.63
2022-08-14T11:36:18.269Z,8.82
2022-08-14T11:38:46.205Z,9.00
2022-08-14T11:41:17.181Z,9.52
2022-08-14T11:43:58.457Z,8.85
2022-08-14T11:46:29.640Z,8.75
2022-08-14T11:49:05.732Z,8.35
2022-08-14T11:51:50.823Z,8.82
2022-08-14T11:54:20.105Z,8.67
2022-08-14T11:56:50.575Z,8.50
2022-08-14T11:59:18.858Z,8.85
2022-08-14T12:01:48.841Z,8.75
2022-08-14T12:04:21.705Z,8.65
2022-08-14T12:07:01.694Z,8.38
2022-08-14T12:09:31.209Z,8.38
2022-08-14T12:11:58.340Z,8.20
2022-08-14T12:14:30.188Z,7.72
2022-08-14T12:17:12.438Z,7.43
2022-08-14T12:19:46.066Z,8.30
2022-08-14T12:22:29.431Z,7.63
2022-08-14T12:24:57.219Z,7.25
2022-08-14T12:27:42.001Z,7.65
2022-08-14T12:30:39.556Z,7.80
2022-08-14T12:33:23.935Z,7.82
2022-08-14T12:35:56.474Z,7.28
2022-08-14T12:38:38.332Z,7.57
2022-08-14T12:41:16.435Z,8.00
2022-08-14T12:43:56.478Z,7.63
2022-08-14T12:46:33.778Z,7.40
2022-08-14T12:49:11.201Z,7.53
2022-08-14T12:51:37.983Z,7.23
2022-08-14T12:54:28.056Z,7.95
2022-08-14T12:57:19.857Z,7.63
2022-08-14T12:59:47.705Z,7.32
2022-08-14T13:02:26.157Z,7.40
2022-08-14T13:04:55.918Z,7.22
2022-08-14T13:07:24.079Z,7.18
2022-08-14T13:09:58.011Z,6.57
2022-08-14T13:12:31.725Z,6.65
2022-08-14T13:15:08.881Z,6.70
2022-08-14T13:17:52.671Z,6.38
2022-08-14T13:20:24.911Z,6.40
2022-08-14T13:22:54.991Z,6.30
2022-08-14T13:25:25.249Z,6.60
2022-08-14T13:27:55.155Z,6.47
2022-08-14T13:30:24.737Z,6.07
2022-08-14T13:32:53.466Z,5.97
2022-08-14T13:35:22.558Z,6.32
2022-08-14T13:37:52.416Z,6.60
2022-08-14T13:40:26.721Z,6.43
2022-08-14T13:42:56.913Z,6.43
2022-08-14T13:45:33.590Z,5.88
2022-08-14T13:48:01.362Z,6.32
2022-08-14T13:50:27.977Z,6.30
2022-08-14T13:52:56.910Z,6.20
2022-08-14T13:55:27.945Z,7.90
2022-08-14T13:58:03.985Z,9.32
2022-08-14T14:00:36.035Z,9.63
2022-08-14T14:03:23.936Z,9.30
2022-08-14T14:05:54.258Z,9.47
2022-08-14T14:08:46.722Z,9.93
2022-08-14T14:11:09.961Z,9.67
2022-08-14T14:13:41.992Z,9.20
2022-08-14T14:16:15.516Z,9.27
2022-08-14T14:18:52.480Z,8.93
2022-08-14T14:21:21.874Z,8.63
2022-08-14T14:23:48.958Z,8.80
2022-08-14T14:26:23.068Z,8.73
2022-08-14T14:28:56.725Z,8.50
2022-08-14T14:31:29.586Z,8.73
2022-08-14T14:34:01.062Z,8.07
2022-08-14T14:36:35.492Z,7.77
2022-08-14T14:39:06.379Z,7.63
2022-08-14T14:41:43.735Z,8.23
2022-08-14T14:44:13.357Z,8.50
2022-08-14T14:46:42.311Z,8.33
2022-08-14T14:49:15.011Z,8.73
2022-08-14T14:51:44.501Z,8.93
2022-08-14T14:54:14.217Z,8.57
2022-08-14T14:56:49.649Z,8.00
2022-08-14T14:59:19.604Z,8.33
2022-08-14T15:01:51.211Z,9.17
2022-08-14T15:04:20.080Z,9.07
2022-08-14T15:06:48.277Z,9.67
2022-08-14T15:09:18.156Z,9.60
2022-08-14T15:11:46.943Z,10.60
2022-08-14T15:14:56.477Z,10.03
2022-08-14T15:17:02.261Z,11.10
2022-08-14T15:19:29.096Z,11.33
2022-08-14T15:21:55.757Z,10.60
2022-08-14T15:24:26.498Z,11.17
2022-08-14T15:26:53.450Z,10.00
2022-08-14T15:29:23.118Z,10.17
2022-08-14T15:31:53.350Z,11.13
2022-08-14T15:34:45.443Z,10.07
2022-08-14T15:37:10.933Z,10.30
2022-08-14T15:39:41.405Z,10.07
2022-08-14T15:42:15.566Z,10.20
2022-08-14T15:44:56.520Z,10.50
2022-08-14T15:47:28.064Z,10.83
2022-08-14T15:49:59.441Z,11.53
2022-08-14T15:52:32.802Z,11.37
2022-08-14T15:55:14.525Z,11.10
2022-08-14T15:58:01.769Z,13.20
2022-08-14T16:00:49.455Z,12.87
2022-08-14T16:03:18.081Z,12.40
2022-08-14T16:05:52.068Z,11.17
2022-08-14T16:08:28.574Z,11.27
2022-08-14T16:10:58.725Z,11.80
2022-08-14T16:13:42.099Z,11.93
2022-08-14T16:16:49.364Z,12.13
2022-08-14T16:22:02.146Z,12.97
2022-08-14T16:24:59.953Z,11.33
2022-08-14T16:27:39.296Z,12.70
2022-08-14T16:30:20.611Z,11.97
2022-08-14T16:32:55.499Z,11.73
2022-08-14T16:35:26.412Z,11.50
2022-08-14T16:38:19.282Z,11.53
2022-08-14T16:40:23.766Z,12.03
2022-08-14T16:41:16.215Z,12.07
2022-08-14T16:43:44.775Z,11.57
2022-08-14T16:46:18.445Z,11.97
2022-08-14T16:48:57.138Z,12.00
2022-08-14T16:51:25.099Z,11.70
2022-08-14T16:53:51.774Z,11.03
2022-08-14T16:56:25.393Z,11.17
2022-08-14T16:59:16.060Z,12.13
2022-08-14T17:01:44.944Z,11.97
2022-08-14T17:04:24.691Z,12.20
2022-08-14T17:06:54.001Z,10.63
2022-08-14T17:09:33.613Z,10.13
2022-08-14T17:12:09.971Z,9.53
2022-08-14T17:15:10.825Z,10.00
2022-08-14T17:17:40.775Z,10.23
2022-08-14T17:20:53.504Z,10.73
2022-08-14T17:23:00.960Z,10.53
2022-08-14T17:25:37.154Z,11.27
2022-08-14T17:28:52.463Z,11.77
2022-08-14T17:31:03.428Z,11.10
2022-08-14T17:33:40.847Z,11.03
2022-08-14T17:36:24.090Z,11.03
2022-08-14T17:39:13.413Z,11.27
2022-08-14T17:42:01.722Z,10.73
2022-08-14T17:44:34.428Z,10.63
2022-08-14T17:47:14.831Z,11.53
2022-08-14T17:49:51.940Z,11.13
2022-08-14T17:52:33.945Z,11.47
2022-08-14T17:55:02.443Z,11.00
2022-08-14T17:57:35.642Z,10.70
2022-08-14T18:00:16.494Z,10.73
2022-08-14T18:02:50.547Z,11.83
2022-08-14T18:05:18.330Z,11.43
2022-08-14T18:08:00.241Z,11.10
2022-08-14T18:10:55.582Z,10.77
2022-08-14T18:13:52.001Z,11.00
2022-08-14T18:16:20.674Z,10.33
2022-08-14T18:18:49.734Z,11.70
2022-08-14T18:21:42.513Z,13.60
2022-08-14T18:24:04.923Z,12.67
2022-08-14T18:26:54.851Z,12.03
2022-08-14T18:29:31.749Z,12.00
2022-08-14T18:31:59.312Z,12.50
2022-08-14T18:34:36.490Z,11.50
2022-08-14T18:37:18.067Z,12.23
2022-08-14T18:40:03.211Z,11.33
2022-08-14T18:42:34.930Z,12.30
2022-08-14T18:45:02.023Z,13.40
2022-08-14T18:48:06.365Z,12.20
2022-08-14T18:50:31.365Z,11.73
2022-08-14T18:53:10.727Z,11.07
2022-08-14T18:55:37.701Z,12.47
2022-08-14T18:58:31.783Z,12.10
2022-08-14T19:01:02.402Z,11.27
2022-08-14T19:03:34.272Z,11.73
2022-08-14T19:06:05.718Z,10.77
2022-08-14T19:08:49.643Z,12.37
2022-08-14T19:11:31.765Z,12.13
2022-08-14T19:13:59.427Z,12.23
2022-08-14T19:16:37.528Z,12.23
2022-08-14T19:19:11.605Z,10.90
2022-08-14T19:21:44.561Z,12.27
2022-08-14T19:24:29.343Z,12.70
2022-08-14T19:27:16.512Z,12.80
2022-08-14T19:29:47.832Z,12.87
2022-08-14T19:32:39.489Z,12.77
2022-08-14T19:35:18.053Z,13.17
2022-08-14T19:37:48.661Z,12.07
2022-08-14T19:40:50.374Z,12.83
2022-08-14T19:43:56.500Z,13.53
2022-08-14T19:46:38.104Z,14.30
2022-08-14T19:49:02.258Z,14.33
2022-08-14T19:51:32.541Z,15.13
2022-08-14T19:54:13.560Z,15.23
2022-08-14T19:56:45.931Z,14.37
2022-08-14T19:59:18.114Z,13.67
2022-08-14T20:01:50.151Z,13.00
2022-08-14T20:04:47.761Z,13.97
2022-08-14T20:07:59.092Z,13.80
2022-08-14T20:11:02.963Z,14.73
2022-08-14T20:13:32.032Z,14.50
2022-08-14T20:16:07.357Z,13.60
2022-08-14T20:18:50.827Z,14.00
2022-08-14T20:21:18.539Z,12.80
2022-08-14T20:23:48.089Z,13.40
2022-08-14T20:26:31.768Z,13.27
2022-08-14T20:29:05.088Z,13.17
2022-08-14T20:31:37.245Z,14.93
2022-08-14T20:34:24.809Z,13.23
2022-08-14T20:37:04.237Z,14.67
2022-08-14T20:39:34.422Z,14.17
2022-08-14T20:42:30.500Z,13.67
2022-08-14T20:45:21.586Z,12.87
2022-08-14T20:48:01.107Z,12.80
2022-08-14T20:50:29.795Z,13.20
2022-08-14T20:52:58.207Z,14.80
2022-08-14T20:55:32.060Z,13.70
2022-08-14T20:58:02.592Z,13.70
2022-08-14T21:00:51.864Z,13.77
2022-08-14T21:04:01.129Z,12.67
2022-08-14T21:07:22.777Z,13.80
2022-08-14T21:10:04.582Z,13.20
2022-08-14T21:12:32.760Z,14.27
2022-08-14T21:14:59.862Z,12.77
2022-08-14T21:17:31.966Z,14.30
2022-08-14T21:20:25.306Z,13.13
2022-08-14T21:22:52.698Z,13.77
2022-08-14T21:25:20.755Z,13.63
2022-08-14T21:27:57.301Z,13.30
2022-08-14T21:30:51.334Z,13.60
2022-08-14T21:33:13.192Z,13.97
2022-08-14T21:35:45.620Z,13.50
2022-08-14T21:38:16.896Z,14.00
2022-08-14T21:40:48.243Z,13.53
2022-08-14T21:43:20.605Z,13.53
2022-08-14T21:45:53.182Z,15.27
2022-08-14T21:48:21.427Z,14.10
2022-08-14T21:51:01.187Z,14.80
2022-08-14T21:53:59.260Z,13.87
2022-08-14T21:56:37.309Z,15.03
2022-08-14T21:59:09.129Z,14.83
2022-08-14T22:02:01.809Z,14.93
2022-08-14T22:04:33.280Z,15.10
2022-08-14T22:07:07.160Z,14.07
2022-08-14T22:09:36.768Z,14.63
2022-08-14T22:12:06.816Z,14.30
2022-08-14T22:14:43.255Z,14.17
2022-08-14T22:17:16.377Z,14.63
2022-08-14T22:19:54.363Z,14.47
2022-08-14T22:22:23.909Z,13.80
2022-08-14T22:24:54.062Z,12.87
2022-08-14T22:27:32.643Z,13.57
2022-08-14T22:30:00.137Z,13.87
2022-08-14T22:32:56.313Z,14.27
2022-08-14T22:35:15.778Z,14.33
2022-08-14T22:37:44.547Z,16.10
2022-08-14T22:40:46.744Z,15.10
2022-08-14T22:43:08.379Z,14.60
2022-08-14T22:45:36.522Z,15.43
2022-08-14T22:48:11.125Z,14.87
2022-08-14T22:50:48.957Z,14.77
2022-08-14T22:53:20.566Z,13.50
2022-08-14T22:55:47.700Z,13.40
2022-08-14T22:58:17.015Z,13.90
2022-08-14T23:00:45.711Z,15.07
2022-08-14T23:03:17.515Z,13.97
2022-08-14T23:05:52.513Z,13.23
2022-08-14T23:09:01.977Z,13.37
2022-08-14T23:11:10.168Z,13.63
2022-08-14T23:13:43.436Z,12.93
2022-08-14T23:16:20.042Z,13.47
2022-08-14T23:18:54.023Z,13.40
2022-08-14T23:21:24.136Z,13.60
2022-08-14T23:23:54.929Z,14.03
2022-08-14T23:26:49.407Z,14.63
2022-08-14T23:29:14.670Z,13.97
2022-08-14T23:31:44.680Z,13.60
2022-08-14T23:34:20.925Z,14.37
2022-08-14T23:36:53.031Z,14.87
2022-08-14T23:39:21.081Z,13.87
2022-08-14T23:41:53.096Z,13.40
2022-08-14T23:44:24.169Z,12.97
2022-08-14T23:46:58.756Z,15.27
2022-08-14T23:50:00.475Z,13.63
2022-08-14T23:52:55.558Z,14.07
2022-08-14T23:55:11.223Z,14.83
2022-08-14T23:57:43.615Z,14.90
